createdAt,value
2018-03-11T00:00:50.584Z,96.10
2018-03-11T00:03:18.816Z,96.20
2018-03-11T00:05:46.277Z,96.10
2018-03-11T00:08:13.764Z,96.20
2018-03-11T00:10:41.225Z,96.20
2018-03-11T00:13:08.765Z,96.20
2018-03-11T00:15:36.245Z,96.20
2018-03-11T00:18:03.832Z,96.30
2018-03-11T00:20:31.377Z,96.30
2018-03-11T00:22:59.610Z,96.30
2018-03-11T00:25:27.136Z,96.30
2018-03-11T00:27:54.593Z,96.40
2018-03-11T00:30:22.828Z,96.30
2018-03-11T00:32:50.408Z,96.30
2018-03-11T00:35:18.646Z,96.30
2018-03-11T00:37:46.104Z,96.30
2018-03-11T00:40:13.866Z,96.30
2018-03-11T00:42:41.337Z,96.20
2018-03-11T00:45:08.808Z,96.20
2018-03-11T00:47:36.290Z,96.20
2018-03-11T00:50:03.741Z,96.30
2018-03-11T00:52:31.224Z,96.30
2018-03-11T00:54:58.721Z,96.30
2018-03-11T00:57:26.193Z,96.30
2018-03-11T00:59:53.734Z,96.30
2018-03-11T01:02:21.193Z,96.30
2018-03-11T01:04:52.742Z,96.30
2018-03-11T01:07:20.236Z,96.40
2018-03-11T01:09:48.546Z,96.90
2018-03-11T01:12:16.000Z,96.90
2018-03-11T01:14:43.486Z,96.90
2018-03-11T01:17:10.958Z,96.80
2018-03-11T01:19:38.481Z,96.70
2018-03-11T01:22:05.961Z,96.70
2018-03-11T01:24:33.400Z,96.80
2018-03-11T01:27:00.974Z,96.70
2018-03-11T01:29:28.446Z,96.70
2018-03-11T01:31:55.900Z,96.80
2018-03-11T01:34:23.417Z,96.80
2018-03-11T01:36:50.992Z,96.90
2018-03-11T01:39:18.441Z,96.80
2018-03-11T01:41:46.081Z,96.80
2018-03-11T01:44:13.546Z,96.80
2018-03-11T01:46:41.018Z,96.80
2018-03-11T01:49:08.494Z,96.90
2018-03-11T01:51:35.969Z,96.90
2018-03-11T01:54:03.415Z,97.00
2018-03-11T01:56:30.913Z,97.00
2018-03-11T01:58:59.146Z,97.00
2018-03-11T02:01:26.800Z,96.90
2018-03-11T02:03:54.246Z,97.00
2018-03-11T02:06:21.803Z,97.10
2018-03-11T02:08:49.269Z,97.20
2018-03-11T02:11:16.754Z,97.20
2018-03-11T02:13:44.209Z,97.20
2018-03-11T02:16:11.681Z,97.20
2018-03-11T02:18:39.413Z,97.30
2018-03-11T02:21:11.409Z,97.30
2018-03-11T02:23:38.859Z,97.30
2018-03-11T02:26:06.312Z,97.70
2018-03-11T02:28:33.805Z,97.40
2018-03-11T02:31:02.021Z,97.70
2018-03-11T02:33:29.469Z,97.70
2018-03-11T02:35:57.088Z,97.80
2018-03-11T02:38:25.312Z,97.80
2018-03-11T02:40:52.786Z,97.80
2018-03-11T02:43:20.243Z,97.90
2018-03-11T02:45:47.708Z,97.90
2018-03-11T02:48:15.161Z,98.00
2018-03-11T02:50:42.642Z,98.00
2018-03-11T02:53:12.681Z,98.00
2018-03-11T02:55:40.140Z,98.00
2018-03-11T02:58:07.611Z,98.00
2018-03-11T03:00:35.093Z,97.90
2018-03-11T03:03:02.599Z,97.90
2018-03-11T03:05:30.824Z,98.00
2018-03-11T03:07:58.286Z,98.00
2018-03-11T03:10:26.173Z,98.00
2018-03-11T03:12:53.668Z,98.10
2018-03-11T03:15:21.893Z,98.20
2018-03-11T03:17:49.538Z,98.20
2018-03-11T03:20:17.007Z,98.30
2018-03-11T03:22:44.489Z,98.30
2018-03-11T03:25:11.958Z,98.30
2018-03-11T03:27:39.578Z,98.50
2018-03-11T03:30:07.044Z,98.60
2018-03-11T03:32:34.509Z,98.70
2018-03-11T03:35:01.965Z,98.70
2018-03-11T03:37:29.440Z,98.70
2018-03-11T03:39:56.897Z,98.70
2018-03-11T03:42:26.904Z,98.70
2018-03-11T03:44:54.358Z,98.70
2018-03-11T03:47:21.840Z,98.80
2018-03-11T03:49:49.309Z,98.80
2018-03-11T03:52:17.525Z,98.90
2018-03-11T03:54:45.013Z,98.90
2018-03-11T03:57:12.491Z,98.90
2018-03-11T03:59:40.182Z,99.00
2018-03-11T04:02:07.637Z,99.00
2018-03-11T04:04:35.083Z,99.00
2018-03-11T04:07:03.433Z,99.20
2018-03-11T04:09:30.900Z,99.10
2018-03-11T04:11:58.348Z,99.10
2018-03-11T04:14:27.336Z,99.10
2018-03-11T04:16:54.949Z,99.10
2018-03-11T04:19:22.432Z,99.20
2018-03-11T04:21:49.921Z,99.40
2018-03-11T04:24:17.375Z,99.40
2018-03-11T04:26:47.233Z,99.40
2018-03-11T04:29:14.689Z,99.40
2018-03-11T04:31:42.149Z,99.50
2018-03-11T04:34:09.694Z,99.50
2018-03-11T04:36:37.172Z,99.60
2018-03-11T04:39:04.642Z,99.60
2018-03-11T04:41:32.125Z,99.70
2018-03-11T04:43:59.588Z,99.70
2018-03-11T04:46:27.209Z,99.70
2018-03-11T04:48:54.661Z,99.70
2018-03-11T04:51:22.129Z,99.70
2018-03-11T04:53:49.613Z,99.90
2018-03-11T04:56:17.073Z,99.80
2018-03-11T04:58:44.561Z,99.90
2018-03-11T05:01:12.794Z,99.90
2018-03-11T05:03:40.440Z,99.90
2018-03-11T05:06:07.889Z,99.90
2018-03-11T05:08:35.520Z,99.90
2018-03-11T05:11:03.750Z,99.90
2018-03-11T05:13:31.210Z,99.90
2018-03-11T05:15:58.697Z,99.90
2018-03-11T05:18:26.247Z,99.90
2018-03-11T05:20:55.206Z,99.90
2018-03-11T05:23:22.708Z,99.90
2018-03-11T05:25:50.161Z,99.90
2018-03-11T05:28:17.633Z,99.90
2018-03-11T05:30:45.911Z,99.90
2018-03-11T05:33:14.140Z,99.90
2018-03-11T05:35:41.610Z,99.90
2018-03-11T05:38:09.457Z,99.90
2018-03-11T05:40:36.920Z,99.90
2018-03-11T05:43:04.380Z,99.90
2018-03-11T05:45:31.944Z,99.90
2018-03-11T05:47:59.410Z,99.90
2018-03-11T05:50:26.866Z,99.90
2018-03-11T05:52:54.354Z,99.90
2018-03-11T05:55:21.804Z,99.90
2018-03-11T05:57:49.396Z,99.90
2018-03-11T06:00:16.847Z,99.90
2018-03-11T06:02:45.077Z,99.90
2018-03-11T06:05:12.520Z,99.90
2018-03-11T06:07:40.006Z,99.90
2018-03-11T06:10:07.447Z,99.90
2018-03-11T06:12:34.892Z,99.90
2018-03-11T06:15:02.668Z,99.90
2018-03-11T06:17:30.129Z,99.90
2018-03-11T06:19:57.576Z,99.90
2018-03-11T06:22:25.050Z,99.90
2018-03-11T06:24:52.525Z,99.90
2018-03-11T06:27:19.965Z,99.90
2018-03-11T06:29:47.420Z,99.90
2018-03-11T06:32:14.869Z,99.90
2018-03-11T06:34:42.406Z,99.90
2018-03-11T06:37:09.842Z,99.90
2018-03-11T06:39:37.461Z,99.90
2018-03-11T06:42:04.895Z,99.90
2018-03-11T06:44:32.359Z,99.90
2018-03-11T06:46:59.818Z,99.90
2018-03-11T06:49:27.372Z,99.90
2018-03-11T06:51:54.816Z,99.90
2018-03-11T06:54:23.071Z,99.90
2018-03-11T06:56:53.225Z,99.90
2018-03-11T06:59:20.681Z,99.90
2018-03-11T07:01:48.122Z,99.90
2018-03-11T07:04:15.777Z,99.90
2018-03-11T07:06:43.213Z,99.90
2018-03-11T07:09:10.691Z,99.90
2018-03-11T07:11:38.130Z,99.90
2018-03-11T07:14:05.601Z,99.90
2018-03-11T07:16:33.073Z,99.90
2018-03-11T07:19:00.596Z,99.90
2018-03-11T07:21:28.809Z,99.90
2018-03-11T07:23:56.265Z,99.90
2018-03-11T07:26:23.777Z,99.90
2018-03-11T07:28:52.004Z,99.90
2018-03-11T07:31:19.576Z,99.90
2018-03-11T07:33:47.025Z,99.90
2018-03-11T07:36:14.469Z,99.90
2018-03-11T07:38:42.245Z,99.90
2018-03-11T07:41:09.681Z,99.90
2018-03-11T07:43:37.140Z,99.90
2018-03-11T07:46:04.853Z,99.90
2018-03-11T07:48:32.312Z,99.90
2018-03-11T07:50:59.750Z,99.90
2018-03-11T07:53:27.239Z,99.90
2018-03-11T07:55:54.714Z,99.90
2018-03-11T07:58:22.921Z,99.90
2018-03-11T08:00:50.353Z,99.90
2018-03-11T08:03:18.024Z,99.90
2018-03-11T08:05:45.478Z,99.90
2018-03-11T08:08:13.168Z,99.90
2018-03-11T08:10:40.565Z,99.90
2018-03-11T08:13:08.021Z,99.90
2018-03-11T08:15:35.519Z,99.90
2018-03-11T08:18:02.976Z,99.90
2018-03-11T08:20:30.458Z,99.50
2018-03-11T08:22:57.909Z,99.40
2018-03-11T08:25:26.630Z,99.40
2018-03-11T08:27:54.100Z,99.30
2018-03-11T08:30:21.553Z,99.30
2018-03-11T08:32:49.954Z,99.30
2018-03-11T08:35:18.175Z,99.20
2018-03-11T08:37:47.020Z,99.20
2018-03-11T08:40:15.325Z,99.10
2018-03-11T08:42:42.915Z,99.40
2018-03-11T08:45:10.360Z,99.00
2018-03-11T08:47:37.820Z,98.90
2018-03-11T08:50:05.292Z,98.80
2018-03-11T08:52:32.747Z,98.80
2018-03-11T08:55:00.424Z,98.70
2018-03-11T08:57:27.870Z,98.70
2018-03-11T08:59:55.356Z,98.70
2018-03-11T09:02:22.805Z,98.60
2018-03-11T09:04:51.024Z,98.60
2018-03-11T09:07:18.586Z,98.50
2018-03-11T09:09:46.049Z,98.30
2018-03-11T09:12:13.497Z,98.30
2018-03-11T09:14:41.124Z,98.20
2018-03-11T09:17:09.334Z,98.00
2018-03-11T09:19:36.781Z,98.00
2018-03-11T09:22:04.252Z,97.90
2018-03-11T09:24:31.722Z,97.80
2018-03-11T09:26:59.173Z,97.70
2018-03-11T09:29:30.445Z,97.60
2018-03-11T09:31:57.902Z,97.50
2018-03-11T09:34:25.372Z,97.40
2018-03-11T09:36:52.817Z,97.30
2018-03-11T09:39:20.289Z,97.10
2018-03-11T09:41:47.734Z,96.90
2018-03-11T09:44:15.193Z,96.70
2018-03-11T09:46:42.624Z,96.50
2018-03-11T09:49:10.193Z,96.40
2018-03-11T09:51:37.637Z,96.20
2018-03-11T09:54:05.072Z,96.00
2018-03-11T09:56:32.556Z,95.90
2018-03-11T09:59:00.924Z,95.80
2018-03-11T10:01:28.374Z,95.70
2018-03-11T10:03:56.339Z,95.60
2018-03-11T10:06:23.780Z,95.50
2018-03-11T10:08:51.239Z,95.30
2018-03-11T10:11:19.109Z,95.20
2018-03-11T10:13:46.545Z,94.90
2018-03-11T10:16:14.799Z,94.50
2018-03-11T10:18:42.241Z,94.50
2018-03-11T10:21:09.677Z,94.40
2018-03-11T10:23:37.147Z,94.20
2018-03-11T10:26:08.408Z,94.10
2018-03-11T10:28:35.849Z,93.90
2018-03-11T10:31:03.317Z,93.90
2018-03-11T10:33:30.758Z,93.70
2018-03-11T10:35:58.209Z,93.60
2018-03-11T10:38:25.834Z,93.50
2018-03-11T10:40:54.041Z,93.60
2018-03-11T10:43:21.488Z,93.30
2018-03-11T10:45:49.037Z,93.10
2018-03-11T10:48:17.248Z,92.90
2018-03-11T10:50:44.707Z,92.90
2018-03-11T10:53:12.153Z,92.70
2018-03-11T10:55:39.823Z,92.60
2018-03-11T10:58:07.228Z,92.50
2018-03-11T11:00:43.172Z,92.40
2018-03-11T11:03:16.429Z,92.30
2018-03-11T11:05:43.896Z,92.20
2018-03-11T11:08:11.338Z,92.10
2018-03-11T11:10:38.786Z,92.00
2018-03-11T11:13:06.532Z,91.90
2018-03-11T11:15:34.186Z,91.90
2018-03-11T11:18:02.436Z,91.90
2018-03-11T11:20:29.885Z,91.80
2018-03-11T11:22:57.348Z,91.80
2018-03-11T11:25:24.789Z,91.80
2018-03-11T11:27:52.256Z,91.60
2018-03-11T11:30:19.922Z,91.60
2018-03-11T11:32:47.353Z,91.50
2018-03-11T11:35:14.812Z,91.40
2018-03-11T11:37:42.279Z,91.40
2018-03-11T11:40:09.721Z,91.30
2018-03-11T11:42:37.217Z,91.30
2018-03-11T11:45:04.660Z,91.20
2018-03-11T11:47:32.097Z,91.10
2018-03-11T11:49:59.847Z,91.10
2018-03-11T11:52:27.289Z,91.00
2018-03-11T11:54:54.728Z,90.80
2018-03-11T11:57:23.009Z,90.30
2018-03-11T11:59:51.238Z,90.10
2018-03-11T12:02:18.672Z,90.10
2018-03-11T12:04:46.182Z,90.00
2018-03-11T12:07:13.609Z,89.90
2018-03-11T12:09:41.093Z,89.80
2018-03-11T12:12:08.553Z,89.80
2018-03-11T12:14:35.975Z,89.70
2018-03-11T12:17:03.488Z,89.60
2018-03-11T12:19:31.756Z,89.40
2018-03-11T12:21:59.985Z,89.20
2018-03-11T12:24:27.453Z,89.20
2018-03-11T12:26:54.921Z,89.00
2018-03-11T12:29:22.385Z,88.80
2018-03-11T12:31:49.826Z,88.80
2018-03-11T12:34:17.415Z,88.60
2018-03-11T12:36:44.849Z,88.50
2018-03-11T12:39:12.304Z,88.40
2018-03-11T12:41:39.772Z,88.40
2018-03-11T12:44:07.219Z,88.30
2018-03-11T12:46:34.684Z,88.00
2018-03-11T12:49:02.140Z,87.80
2018-03-11T12:51:29.777Z,87.60
2018-03-11T12:53:57.225Z,88.10
2018-03-11T12:56:24.673Z,87.40
2018-03-11T12:58:52.305Z,88.00
2018-03-11T13:01:20.560Z,87.10
2018-03-11T13:03:48.003Z,87.10
2018-03-11T13:06:15.445Z,86.70
2018-03-11T13:08:42.980Z,86.60
2018-03-11T13:11:10.437Z,86.30
2018-03-11T13:13:37.869Z,86.10
2018-03-11T13:16:06.624Z,85.80
2018-03-11T13:18:34.082Z,85.90
2018-03-11T13:21:06.150Z,85.70
2018-03-11T13:23:33.581Z,85.50
2018-03-11T13:26:01.056Z,85.60
2018-03-11T13:28:40.164Z,85.60
2018-03-11T13:31:08.591Z,85.50
2018-03-11T13:33:47.792Z,85.40
2018-03-11T13:36:15.277Z,85.50
2018-03-11T13:38:54.885Z,85.50
2018-03-11T13:41:22.773Z,85.40
2018-03-11T13:43:50.224Z,85.40
2018-03-11T13:46:29.761Z,85.70
2018-03-11T13:48:57.226Z,85.90
2018-03-11T13:51:36.585Z,86.00
2018-03-11T13:54:04.297Z,86.20
2018-03-11T13:56:31.800Z,86.30
2018-03-11T13:58:59.236Z,86.20
2018-03-11T14:01:27.084Z,86.30
2018-03-11T14:03:54.519Z,86.20
2018-03-11T14:06:21.969Z,86.30
2018-03-11T14:08:49.559Z,86.20
2018-03-11T14:11:17.008Z,86.30
2018-03-11T14:13:44.481Z,86.20
2018-03-11T14:16:12.837Z,86.00
2018-03-11T14:18:40.318Z,85.80
2018-03-11T14:21:07.766Z,85.50
2018-03-11T14:23:35.206Z,85.40
2018-03-11T14:26:02.817Z,85.10
2018-03-11T14:28:30.263Z,84.90
2018-03-11T14:30:57.717Z,84.70
2018-03-11T14:33:25.172Z,84.50
2018-03-11T14:35:52.618Z,84.20
2018-03-11T14:38:20.404Z,83.90
2018-03-11T14:40:47.883Z,83.70
2018-03-11T14:43:16.085Z,84.10
2018-03-11T14:45:43.596Z,83.30
2018-03-11T14:48:11.073Z,83.10
2018-03-11T14:50:38.534Z,82.90
2018-03-11T14:53:05.985Z,82.90
2018-03-11T14:55:33.494Z,82.90
2018-03-11T14:58:00.956Z,82.70
2018-03-11T15:00:28.632Z,82.50
2018-03-11T15:02:56.072Z,82.30
2018-03-11T15:05:23.511Z,81.90
2018-03-11T15:07:51.024Z,81.50
2018-03-11T15:10:18.478Z,81.10
2018-03-11T15:12:47.155Z,80.90
2018-03-11T15:15:14.588Z,80.70
2018-03-11T15:17:42.032Z,80.60
2018-03-11T15:20:09.586Z,80.40
2018-03-11T15:22:37.244Z,80.20
2018-03-11T15:25:04.657Z,80.10
2018-03-11T15:27:32.102Z,80.10
2018-03-11T15:29:59.544Z,79.90
2018-03-11T15:32:27.017Z,79.70
2018-03-11T15:34:54.889Z,79.50
2018-03-11T15:37:22.328Z,79.20
2018-03-11T15:39:50.053Z,78.80
2018-03-11T15:42:18.014Z,78.70
2018-03-11T15:44:46.241Z,78.60
2018-03-11T15:47:13.682Z,78.60
2018-03-11T15:49:41.153Z,78.60
2018-03-11T15:52:08.716Z,78.60
2018-03-11T15:54:36.154Z,78.40
2018-03-11T15:57:03.636Z,78.50
2018-03-11T15:59:31.074Z,78.60
2018-03-11T16:01:59.281Z,78.70
2018-03-11T16:04:26.776Z,78.70
2018-03-11T16:06:54.981Z,79.30
2018-03-11T16:09:27.701Z,79.20
2018-03-11T16:11:55.148Z,79.60
2018-03-11T16:14:22.598Z,80.00
2018-03-11T16:16:50.940Z,80.30
2018-03-11T16:19:18.385Z,80.70
2018-03-11T16:21:46.588Z,81.20
2018-03-11T16:24:28.278Z,81.20
2018-03-11T16:26:42.940Z,81.50
2018-03-11T16:29:10.400Z,81.90
2018-03-11T16:31:37.849Z,82.10
2018-03-11T16:34:05.335Z,82.40
2018-03-11T16:36:32.781Z,82.70
2018-03-11T16:39:00.782Z,82.90
2018-03-11T16:41:28.260Z,83.10
2018-03-11T16:43:56.480Z,83.70
2018-03-11T16:46:23.957Z,83.70
2018-03-11T16:48:51.430Z,83.80
2018-03-11T16:51:18.869Z,84.10
2018-03-11T16:53:46.509Z,84.30
2018-03-11T16:56:13.945Z,84.40
2018-03-11T16:58:41.401Z,84.60
2018-03-11T17:01:09.021Z,84.80
2018-03-11T17:03:36.457Z,85.00
2018-03-11T17:06:03.913Z,85.10
2018-03-11T17:08:31.357Z,85.30
2018-03-11T17:10:58.955Z,85.40
2018-03-11T17:13:26.420Z,85.60
2018-03-11T17:15:54.765Z,86.40
2018-03-11T17:18:22.210Z,85.90
2018-03-11T17:20:49.651Z,86.00
2018-03-11T17:23:18.048Z,86.10
2018-03-11T17:25:45.497Z,86.10
2018-03-11T17:28:12.949Z,86.20
2018-03-11T17:30:40.481Z,86.60
2018-03-11T17:33:07.950Z,86.80
2018-03-11T17:35:35.405Z,86.90
2018-03-11T17:38:03.632Z,87.10
2018-03-11T17:40:31.636Z,87.10
2018-03-11T17:42:59.093Z,87.20
2018-03-11T17:45:27.301Z,87.40
2018-03-11T17:47:54.768Z,87.40
2018-03-11T17:50:22.226Z,87.40
2018-03-11T17:52:49.725Z,87.70
2018-03-11T17:55:17.212Z,87.70
2018-03-11T17:57:44.677Z,87.90
2018-03-11T18:00:12.277Z,88.10
2018-03-11T18:02:39.791Z,88.50
2018-03-11T18:05:07.262Z,88.60
2018-03-11T18:07:34.732Z,88.80
2018-03-11T18:10:02.244Z,88.80
2018-03-11T18:12:30.558Z,89.30
2018-03-11T18:14:58.117Z,89.30
2018-03-11T18:17:25.634Z,89.50
2018-03-11T18:19:53.113Z,89.70
2018-03-11T18:22:20.589Z,89.70
2018-03-11T18:24:48.083Z,89.80
2018-03-11T18:27:15.538Z,89.90
2018-03-11T18:29:43.189Z,90.00
2018-03-11T18:32:10.670Z,90.00
2018-03-11T18:34:38.129Z,90.10
2018-03-11T18:37:05.592Z,90.10
2018-03-11T18:39:33.082Z,90.20
2018-03-11T18:42:00.654Z,90.30
2018-03-11T18:44:28.271Z,90.30
2018-03-11T18:46:55.723Z,90.40
2018-03-11T18:49:23.209Z,90.50
2018-03-11T18:51:51.437Z,90.50
2018-03-11T18:54:18.940Z,90.40
2018-03-11T18:56:46.394Z,90.50
2018-03-11T18:59:14.659Z,90.60
2018-03-11T19:01:42.129Z,90.60
2018-03-11T19:04:10.353Z,91.20
2018-03-11T19:06:43.057Z,90.80
2018-03-11T19:09:10.529Z,91.00
2018-03-11T19:11:37.989Z,91.10
2018-03-11T19:14:06.762Z,91.10
2018-03-11T19:16:34.233Z,91.20
2018-03-11T19:19:01.922Z,91.20
2018-03-11T19:21:30.137Z,91.40
2018-03-11T19:23:57.650Z,91.40
2018-03-11T19:26:25.074Z,91.80
2018-03-11T19:28:52.549Z,91.50
2018-03-11T19:31:20.781Z,91.60
2018-03-11T19:33:48.260Z,91.60
2018-03-11T19:36:15.717Z,91.60
2018-03-11T19:38:43.378Z,91.70
2018-03-11T19:41:10.841Z,91.70
2018-03-11T19:43:38.307Z,91.80
2018-03-11T19:46:05.823Z,91.80
2018-03-11T19:48:33.293Z,91.80
2018-03-11T19:51:00.805Z,91.90
2018-03-11T19:53:29.021Z,92.10
2018-03-11T19:55:56.514Z,92.10
2018-03-11T19:58:24.004Z,92.10
2018-03-11T20:00:52.237Z,92.40
2018-03-11T20:03:19.735Z,92.40
2018-03-11T20:05:48.017Z,92.50
2018-03-11T20:08:15.498Z,92.50
2018-03-11T20:10:43.136Z,92.60
2018-03-11T20:13:10.689Z,92.70
2018-03-11T20:15:38.918Z,92.80
2018-03-11T20:18:06.409Z,92.80
2018-03-11T20:20:34.729Z,92.90
2018-03-11T20:23:02.229Z,92.90
2018-03-11T20:25:29.724Z,92.90
2018-03-11T20:27:57.181Z,93.00
2018-03-11T20:30:24.805Z,93.10
2018-03-11T20:32:52.268Z,93.20
2018-03-11T20:35:19.720Z,93.30
2018-03-11T20:37:47.192Z,93.30
2018-03-11T20:40:14.785Z,93.40
2018-03-11T20:42:42.284Z,93.50
2018-03-11T20:45:09.754Z,93.60
2018-03-11T20:47:37.378Z,93.70
2018-03-11T20:50:04.865Z,94.20
2018-03-11T20:52:32.353Z,94.30
2018-03-11T20:55:00.575Z,94.40
2018-03-11T20:57:28.083Z,94.40
2018-03-11T20:59:55.553Z,94.40
2018-03-11T21:02:23.779Z,94.50
2018-03-11T21:04:51.373Z,94.50
2018-03-11T21:07:18.881Z,94.60
2018-03-11T21:09:47.102Z,94.70
2018-03-11T21:12:14.561Z,94.70
2018-03-11T21:14:42.148Z,94.80
2018-03-11T21:17:09.650Z,94.90
2018-03-11T21:19:37.115Z,94.90
2018-03-11T21:22:09.870Z,94.90
2018-03-11T21:24:37.332Z,95.00
2018-03-11T21:27:05.601Z,95.10
2018-03-11T21:29:33.088Z,95.00
2018-03-11T21:32:00.548Z,95.10
2018-03-11T21:34:28.419Z,95.10
2018-03-11T21:36:55.865Z,95.10
2018-03-11T21:39:23.337Z,95.00
2018-03-11T21:41:50.894Z,95.00
2018-03-11T21:44:18.362Z,95.10
2018-03-11T21:46:45.822Z,95.20
2018-03-11T21:49:13.524Z,95.20
2018-03-11T21:51:40.987Z,95.30
2018-03-11T21:54:08.578Z,95.30
2018-03-11T21:56:36.061Z,95.30
2018-03-11T21:59:03.528Z,95.30
2018-03-11T22:01:31.748Z,95.20
2018-03-11T22:03:59.301Z,95.20
2018-03-11T22:06:26.692Z,95.20
2018-03-11T22:08:54.145Z,95.10
2018-03-11T22:11:21.788Z,95.20
2018-03-11T22:13:49.243Z,95.30
2018-03-11T22:16:16.705Z,95.40
2018-03-11T22:18:44.223Z,95.30
2018-03-11T22:21:12.439Z,95.30
2018-03-11T22:23:39.953Z,95.30
2018-03-11T22:26:13.305Z,95.40
2018-03-11T22:28:40.823Z,95.50
2018-03-11T22:31:08.348Z,95.40
2018-03-11T22:33:35.737Z,95.50
2018-03-11T22:36:03.225Z,95.50
2018-03-11T22:38:30.682Z,95.60
2018-03-11T22:40:58.356Z,95.60
2018-03-11T22:43:25.809Z,95.70
2018-03-11T22:45:53.265Z,95.70
2018-03-11T22:48:20.935Z,95.80
2018-03-11T22:50:49.149Z,95.90
2018-03-11T22:53:17.392Z,95.90
2018-03-11T22:55:44.841Z,95.90
2018-03-11T22:58:12.326Z,95.80
2018-03-11T23:00:39.784Z,95.80
2018-03-11T23:03:07.281Z,95.80
2018-03-11T23:05:34.748Z,95.80
2018-03-11T23:08:02.221Z,95.90
2018-03-11T23:10:29.881Z,95.80
2018-03-11T23:12:57.353Z,95.80
2018-03-11T23:15:24.805Z,95.90
2018-03-11T23:17:52.290Z,95.90
2018-03-11T23:20:19.816Z,95.90
2018-03-11T23:22:47.293Z,95.90
2018-03-11T23:25:14.825Z,95.90
2018-03-11T23:27:42.289Z,96.00
2018-03-11T23:30:09.889Z,96.00
2018-03-11T23:32:37.333Z,96.10
2018-03-11T23:35:04.801Z,96.10
2018-03-11T23:37:32.365Z,96.10
2018-03-11T23:39:59.821Z,96.10
2018-03-11T23:42:27.390Z,96.10
2018-03-11T23:44:55.938Z,96.30
2018-03-11T23:47:23.400Z,96.30
2018-03-11T23:49:50.919Z,96.30
2018-03-11T23:52:18.378Z,96.40
2018-03-11T23:54:45.843Z,96.40
2018-03-11T23:57:13.317Z,96.50
2018-03-11T23:59:40.781Z,96.50
